Central Sonoma County Latest

37 Stations

15 Minute Data | America/Los_Angeles
as of 5/10/26 12:44 AM PDT
Station Date Time Temp (°F) RH (%) Dew Pt (°F) Wind Spd (mph) Wind Dir (°) Wind Gust (mph) Latest Rain (In) Daily Rain (In) Daily Max Temp (°F) Daily Min Temp (°F)
Windsor-NW (Ranch 8) 5/10/26 0030 51.7   0.8 83   1 46.6   0.6 0.0   1.1 SE | 134 0.1   2.2 0.00 0.00 80.6   2.8 48.2   3.0
Windsor-East (Ranch 16) 5/10/26 0030 49.8   0.4 94   0 48.1   0.3 0.6   0.6 E | 95 1.3   1.3 0.00 0.00 78.4   3.5 45.2   4.0
Mark West-North (Ranch 14) 5/10/26 0030 52.3   0.6 93   7 50.2   1.6 1.5   1.5 NW | 326 4.4   3.9 0.00 0.00 77.6   3.1 47.0   4.8
Windsor-SE (Silk Rd) 5/10/26 0030 51.3   1.9 97   2 50.4   2.4 1.0   1.0 SE | 138 5.3   5.3 0.00 0.00 78.2   2.4 44.5   4.7
Fulton-NW (Ranch 5) 5/10/26 0030 52.0   1.0 95   1 50.6   1.4 1.3   1.3 SSE | 152 3.1   3.1 0.00 0.00 77.8   3.5 46.3   4.6
Bisordi (Fulton) 5/10/26 0030 52.4   1.1 93   3 50.4   2.0 1.3   0.9 ESE | 122 3.1   1.2 0.00 0.00 77.2   3.0 46.2   5.1
Windsor-South (Laughlin Rd) 5/10/26 0030 52.2   0.4 92   3 49.9   1.4 - - - 0.00 0.00 79.8   4.3 46.5   4.9
Fulton-SE (Barnes Rd) 5/10/26 0030 52.6   0.5 93   7 50.6   1.6 3.9   3.9 SE | 146 7.1   7.1 0.00 0.00 76.6   2.8 47.2   4.9
Fulton-SW (Ranch 21) 5/10/26 0030 52.0   1.8 94   2 50.2   2.5 4.2   4.2 SSE | 165 7.0   7.0 0.00 0.00 76.3   3.4 46.1   3.9
NW Santa Rosa (Piner Road) 5/10/26 0030 52.5   2.1 100   0 52.5   2.1 1.1   1.1 SE | 128 3.0   2.7 0.00 0.00 75.5   2.8 45.5   4.6
River Rd South (Denner Ranch) 5/10/26 0030 51.6   1.9 0   0 -66.8   1.0 4.0   3.9 SE | 125 7.5   6.4 - - 77.0   2.9 44.5   4.9
West Santa Rosa (LOV Vineyard) 5/10/26 0030 52.1   1.7 95   3 50.7   2.5 1.6   1.5 S | 170 5.0   3.3 0.00 0.00 76.3   2.9 45.7   4.5
Guerneville Rd (Prokopakis) 5/10/26 0030 52.6   1.9 94   1 51.0   2.2 - - - 0.00 0.00 80.7   3.2 46.6   4.0
SunnyView Vineyard (SCWC) 5/10/26 0030 52.2   3.8 94   1 50.4   4.1 1.2   1.2 SE | 146 3.4   3.4 0.00 0.00 75.8   3.2 43.6   4.7
Guerneville Rd West (Balletto) 5/10/26 0030 52.4   2.8 96   3 51.4   3.5 2.5   2.5 SE | 141 5.7   5.7 0.00 0.00 76.4   2.5 45.4   3.9
Sanchietti Ranch 5/10/26 0030 52.7   2.2 94   2 51.0   2.6 3.2   2.9 SSE | 147 5.8   4.5 0.00 0.00 76.3   3.1 46.2   4.3
Occidental Rd (Sebastopol) 5/10/26 0030 51.1   2.1 100   0 51.2   2.1 0.9   0.9 SE | 146 5.3   5.3 0.00 0.00 76.2   2.8 45.0   3.9
Harper's Rest (Windsor-West) 5/10/26 0030 49.3   1.4 95   0 47.8   1.3 0.3   1.4 SSW | 197 1.8   0.7 0.00 0.00 79.2   2.3 44.2   3.6
Lower Westside Rd (Ranch 12) 5/10/26 0030 51.6   0.8 93   0 49.7   0.8 0.4   0.4 SW | 232 3.1   3.1 0.00 0.00 80.4   3.0 45.4   4.9
Guerneville (Laughlin Rd) 5/10/26 0030 51.1   0.7 93   0 49.1   0.5 0.0   0.0 N | 0 0.0   0.0 0.00 0.00 82.1   2.9 48.2   2.1
Korbel (Winery) 5/10/26 0030 53.4   0.9 91   2 51.0   0.3 1.3   1.3 S | 180 3.6   3.6 0.00 0.00 83.4   2.7 49.9   1.8
Forestville (Shone Farms) 5/10/26 0030 51.8   1.2 94   2 50.0   1.6 1.7   1.2 ESE | 116 4.1   2.5 0.00 0.00 81.4   4.8 46.0   3.9
Forestville-NE (Ranch 30) 5/10/26 0030 51.0   1.5 96   0 50.0   1.5 2.5   2.4 SE | 127 6.1   5.3 0.00 0.00 79.7   3.7 44.7   4.5
Foggy Bend (Ranch 41) 5/10/26 0030 52.4   0.9 93   0 50.5   0.8 0.2   0.6 E | 94 0.9   1.0 0.00 0.00 80.2   2.8 46.1   5.2
Last Stop 5/10/26 0030 49.9   1.6 96   0 49.0   1.7 0.5   0.3 ESE | 123 2.5   1.1 0.00 0.00 80.2   3.2 43.8   3.5
Green Valley Vineyard 5/10/26 0030 49.3   0.4 96   0 48.2   0.4 0.0   0.2 N | 0 0.0   1.1 0.00 0.00 81.2   6.6 45.4   3.9
Park Royal 5/10/26 0030 52.4   2.0 94   4 50.8   3.2 - - - 0.00 0.00 76.4   3.8 45.2   4.9
Merino 5/10/26 0030 52.3   4.1 98   0 51.8   4.1 2.6   2.0 SSE | 162 5.8   4.5 0.00 0.00 75.5   3.3 43.6   4.6
Green Valley (Sanchietti) 5/10/26 0030 49.3   0.3 - - - - - - - 49.6   0.2 49.2   0.4
Keefer Ranch (Green Valley) 5/10/26 0030 48.3   0.0 95   0 47.0   0.1 - - - 0.00 0.00 80.0   4.7 43.8   4.5
Graton-West (Dutton Ranch) 5/10/26 0030 50.2   0.3 100   0 50.2   0.3 0.1   0.1 N | 349 0.7   0.7 0.00 0.00 79.8   4.2 45.2   4.3
Graton-South (Mill Station Rd) 5/10/26 0030 48.5   0.0 95   1 47.1   0.3 0.0   0.0 N | 0 0.0   0.0 0.00 0.00 75.5   2.7 44.7   3.6
Occidental (Horseshoe Bend) 5/10/26 0030 49.1   1.9 96   1 48.0   1.5 - - - 0.00 0.00 77.3   5.0 48.8   0.2
Sexton Valley (Jacqueline's Blk) 5/10/26 0030 48.6   0.2 94   1 46.8   0.2 0.0   0.0 N | 0 0.0   0.7 0.00 0.00 74.5   2.9 44.3   4.0
Sebastopol Hills (Burnside Rd) 5/10/26 0030 49.8   0.4 97   2 49.0   0.2 0.3   0.2 SW | 230 1.2   0.2 0.00 0.00 71.2   1.9 47.3   2.0
Pleasant Hill 5/10/26 0030 47.9   1.4 96   0 46.9   1.5 0.5   0.9 SSE | 163 2.0   0.0 0.00 0.00 73.6   2.7 44.1   2.0
Seaview/Fort Ross (Hirsch) 5/10/26 0030 56.4   0.1 69   11 46.2   4.6 3.3   0.9 N | 9 7.5   0.7 0.00 0.00 76.4   1.9 54.4   10.5
Max     56.4 100 52.5 4.2 - 7.5 0.00 0.00 83.4 54.4
Avg     51.2 91 46.3 1.3 - 3.4 0.00 - - -
Min     47.9 0 -66.8 0.0 - 0.0 0.00 0.00 49.6 43.6